sensor_id;sensor_type;location;lat;lon;timestamp;P1;durP1;ratioP1;P2;durP2;ratioP2
36691;SDS011;22678;52.052;4.242;2022-07-12T00:00:47;1.73;;;0.50;;
36691;SDS011;22678;52.052;4.242;2022-07-12T00:03:13;2.63;;;0.95;;
36691;SDS011;22678;52.052;4.242;2022-07-12T00:05:39;2.78;;;0.85;;
36691;SDS011;22678;52.052;4.242;2022-07-12T00:08:04;2.85;;;0.73;;
36691;SDS011;22678;52.052;4.242;2022-07-12T00:10:31;2.15;;;0.73;;
36691;SDS011;22678;52.052;4.242;2022-07-12T00:12:57;2.40;;;0.88;;
36691;SDS011;22678;52.052;4.242;2022-07-12T00:15:22;2.65;;;0.52;;
36691;SDS011;22678;52.052;4.242;2022-07-12T00:17:48;1.65;;;0.50;;
36691;SDS011;22678;52.052;4.242;2022-07-12T00:20:13;1.42;;;0.50;;
36691;SDS011;22678;52.052;4.242;2022-07-12T00:22:38;5.03;;;0.68;;
36691;SDS011;22678;52.052;4.242;2022-07-12T00:25:04;1.80;;;0.82;;
36691;SDS011;22678;52.052;4.242;2022-07-12T00:27:29;1.08;;;0.45;;
36691;SDS011;22678;52.052;4.242;2022-07-12T00:29:55;3.15;;;0.55;;
36691;SDS011;22678;52.052;4.242;2022-07-12T00:32:20;1.88;;;0.50;;
36691;SDS011;22678;52.052;4.242;2022-07-12T00:34:46;4.45;;;0.73;;
36691;SDS011;22678;52.052;4.242;2022-07-12T00:37:11;1.27;;;0.45;;
36691;SDS011;22678;52.052;4.242;2022-07-12T00:39:36;1.45;;;0.50;;
36691;SDS011;22678;52.052;4.242;2022-07-12T00:42:02;2.33;;;0.70;;
36691;SDS011;22678;52.052;4.242;2022-07-12T00:44:27;1.52;;;0.50;;
36691;SDS011;22678;52.052;4.242;2022-07-12T00:46:55;1.05;;;0.40;;
36691;SDS011;22678;52.052;4.242;2022-07-12T00:49:22;1.88;;;0.55;;
36691;SDS011;22678;52.052;4.242;2022-07-12T00:51:49;1.50;;;0.50;;
36691;SDS011;22678;52.052;4.242;2022-07-12T00:54:15;2.80;;;1.73;;
36691;SDS011;22678;52.052;4.242;2022-07-12T00:56:41;2.65;;;0.50;;
36691;SDS011;22678;52.052;4.242;2022-07-12T00:59:07;1.52;;;0.57;;
36691;SDS011;22678;52.052;4.242;2022-07-12T01:01:33;1.88;;;1.08;;
36691;SDS011;22678;52.052;4.242;2022-07-12T01:03:58;4.35;;;0.85;;
36691;SDS011;22678;52.052;4.242;2022-07-12T01:06:25;1.45;;;0.50;;
36691;SDS011;22678;52.052;4.242;2022-07-12T01:08:50;1.25;;;0.55;;
36691;SDS011;22678;52.052;4.242;2022-07-12T01:11:16;3.65;;;0.40;;
36691;SDS011;22678;52.052;4.242;2022-07-12T01:13:42;1.80;;;0.63;;
36691;SDS011;22678;52.052;4.242;2022-07-12T01:16:08;1.42;;;0.47;;
36691;SDS011;22678;52.052;4.242;2022-07-12T01:18:35;1.08;;;0.60;;
36691;SDS011;22678;52.052;4.242;2022-07-12T01:21:03;1.48;;;0.45;;
36691;SDS011;22678;52.052;4.242;2022-07-12T01:23:30;1.17;;;0.30;;
36691;SDS011;22678;52.052;4.242;2022-07-12T01:25:56;1.20;;;0.47;;
36691;SDS011;22678;52.052;4.242;2022-07-12T01:28:21;1.33;;;0.40;;
36691;SDS011;22678;52.052;4.242;2022-07-12T01:30:47;1.02;;;0.55;;
36691;SDS011;22678;52.052;4.242;2022-07-12T01:33:13;1.35;;;0.40;;
36691;SDS011;22678;52.052;4.242;2022-07-12T01:35:39;1.20;;;0.30;;
36691;SDS011;22678;52.052;4.242;2022-07-12T01:38:04;1.65;;;0.40;;
36691;SDS011;22678;52.052;4.242;2022-07-12T01:40:30;1.15;;;0.47;;
36691;SDS011;22678;52.052;4.242;2022-07-12T01:42:55;2.10;;;0.60;;
36691;SDS011;22678;52.052;4.242;2022-07-12T01:45:21;1.55;;;0.52;;
36691;SDS011;22678;52.052;4.242;2022-07-12T01:47:47;1.27;;;0.50;;
36691;SDS011;22678;52.052;4.242;2022-07-12T01:50:13;1.38;;;0.47;;
36691;SDS011;22678;52.052;4.242;2022-07-12T01:52:40;1.42;;;0.30;;
36691;SDS011;22678;52.052;4.242;2022-07-12T01:55:06;2.00;;;0.52;;
36691;SDS011;22678;52.052;4.242;2022-07-12T01:57:33;1.20;;;0.40;;
36691;SDS011;22678;52.052;4.242;2022-07-12T02:00:00;3.15;;;0.80;;
36691;SDS011;22678;52.052;4.242;2022-07-12T02:02:27;1.20;;;0.40;;
36691;SDS011;22678;52.052;4.242;2022-07-12T02:04:53;3.22;;;0.68;;
36691;SDS011;22678;52.052;4.242;2022-07-12T02:07:19;3.03;;;0.68;;
36691;SDS011;22678;52.052;4.242;2022-07-12T02:09:45;2.03;;;0.75;;
36691;SDS011;22678;52.052;4.242;2022-07-12T02:12:10;4.40;;;0.85;;
36691;SDS011;22678;52.052;4.242;2022-07-12T02:14:35;1.75;;;0.70;;
36691;SDS011;22678;52.052;4.242;2022-07-12T02:17:00;1.80;;;0.50;;
36691;SDS011;22678;52.052;4.242;2022-07-12T02:19:26;4.38;;;0.57;;
36691;SDS011;22678;52.052;4.242;2022-07-12T02:21:51;2.47;;;0.55;;
36691;SDS011;22678;52.052;4.242;2022-07-12T02:24:16;2.38;;;0.60;;
36691;SDS011;22678;52.052;4.242;2022-07-12T02:26:42;1.52;;;0.55;;
36691;SDS011;22678;52.052;4.242;2022-07-12T02:29:08;2.25;;;1.05;;
36691;SDS011;22678;52.052;4.242;2022-07-12T02:31:34;1.92;;;0.60;;
36691;SDS011;22678;52.052;4.242;2022-07-12T02:33:59;2.28;;;0.70;;
36691;SDS011;22678;52.052;4.242;2022-07-12T02:36:25;3.42;;;1.00;;
36691;SDS011;22678;52.052;4.242;2022-07-12T02:38:50;1.73;;;0.80;;
36691;SDS011;22678;52.052;4.242;2022-07-12T02:41:15;1.50;;;0.68;;
36691;SDS011;22678;52.052;4.242;2022-07-12T02:43:41;2.13;;;0.50;;
36691;SDS011;22678;52.052;4.242;2022-07-12T02:46:07;4.03;;;1.27;;
36691;SDS011;22678;52.052;4.242;2022-07-12T02:48:34;15.73;;;9.02;;
36691;SDS011;22678;52.052;4.242;2022-07-12T02:51:00;31.10;;;18.20;;
36691;SDS011;22678;52.052;4.242;2022-07-12T02:53:26;21.30;;;11.55;;
36691;SDS011;22678;52.052;4.242;2022-07-12T02:55:52;15.48;;;9.27;;
36691;SDS011;22678;52.052;4.242;2022-07-12T02:58:17;9.23;;;5.35;;
36691;SDS011;22678;52.052;4.242;2022-07-12T03:00:43;7.78;;;3.42;;
36691;SDS011;22678;52.052;4.242;2022-07-12T03:03:09;6.85;;;1.88;;
36691;SDS011;22678;52.052;4.242;2022-07-12T03:05:35;5.47;;;1.05;;
36691;SDS011;22678;52.052;4.242;2022-07-12T03:08:01;2.80;;;1.00;;
36691;SDS011;22678;52.052;4.242;2022-07-12T03:10:28;2.47;;;0.98;;
36691;SDS011;22678;52.052;4.242;2022-07-12T03:12:53;1.80;;;0.77;;
36691;SDS011;22678;52.052;4.242;2022-07-12T03:15:18;2.22;;;0.70;;
36691;SDS011;22678;52.052;4.242;2022-07-12T03:17:43;2.10;;;0.75;;
36691;SDS011;22678;52.052;4.242;2022-07-12T03:20:09;2.60;;;0.60;;
36691;SDS011;22678;52.052;4.242;2022-07-12T03:22:37;2.08;;;0.57;;
36691;SDS011;22678;52.052;4.242;2022-07-12T03:25:03;7.95;;;3.90;;
36691;SDS011;22678;52.052;4.242;2022-07-12T03:27:29;65.22;;;33.80;;
36691;SDS011;22678;52.052;4.242;2022-07-12T03:29:56;44.53;;;23.27;;
36691;SDS011;22678;52.052;4.242;2022-07-12T03:32:22;29.63;;;13.57;;
36691;SDS011;22678;52.052;4.242;2022-07-12T03:34:47;13.25;;;6.28;;
36691;SDS011;22678;52.052;4.242;2022-07-12T03:37:12;7.50;;;3.25;;
36691;SDS011;22678;52.052;4.242;2022-07-12T03:39:38;2.25;;;0.95;;
36691;SDS011;22678;52.052;4.242;2022-07-12T03:42:03;2.17;;;0.77;;
36691;SDS011;22678;52.052;4.242;2022-07-12T03:44:29;3.67;;;0.70;;
36691;SDS011;22678;52.052;4.242;2022-07-12T03:46:55;3.92;;;1.15;;
36691;SDS011;22678;52.052;4.242;2022-07-12T03:49:20;3.05;;;0.90;;
36691;SDS011;22678;52.052;4.242;2022-07-12T03:51:45;2.97;;;0.70;;
36691;SDS011;22678;52.052;4.242;2022-07-12T03:54:11;3.00;;;1.42;;
36691;SDS011;22678;52.052;4.242;2022-07-12T03:56:36;2.42;;;0.60;;
36691;SDS011;22678;52.052;4.242;2022-07-12T03:59:20;3.83;;;0.77;;
36691;SDS011;22678;52.052;4.242;2022-07-12T04:01:46;21.00;;;10.27;;
36691;SDS011;22678;52.052;4.242;2022-07-12T04:04:12;25.98;;;13.02;;
36691;SDS011;22678;52.052;4.242;2022-07-12T04:06:37;15.10;;;8.27;;
36691;SDS011;22678;52.052;4.242;2022-07-12T04:09:03;12.30;;;5.97;;
36691;SDS011;22678;52.052;4.242;2022-07-12T04:11:29;8.00;;;4.53;;
36691;SDS011;22678;52.052;4.242;2022-07-12T04:13:55;4.82;;;2.30;;
36691;SDS011;22678;52.052;4.242;2022-07-12T04:16:20;3.70;;;1.55;;
36691;SDS011;22678;52.052;4.242;2022-07-12T04:18:46;3.05;;;2.03;;
36691;SDS011;22678;52.052;4.242;2022-07-12T04:21:11;4.72;;;1.67;;
36691;SDS011;22678;52.052;4.242;2022-07-12T04:23:37;6.68;;;1.98;;
36691;SDS011;22678;52.052;4.242;2022-07-12T04:26:03;4.75;;;1.85;;
36691;SDS011;22678;52.052;4.242;2022-07-12T04:28:28;4.60;;;1.95;;
36691;SDS011;22678;52.052;4.242;2022-07-12T04:30:54;3.65;;;1.92;;
36691;SDS011;22678;52.052;4.242;2022-07-12T04:33:19;5.13;;;2.17;;
36691;SDS011;22678;52.052;4.242;2022-07-12T04:35:44;5.40;;;2.72;;
36691;SDS011;22678;52.052;4.242;2022-07-12T04:38:10;6.35;;;3.35;;
36691;SDS011;22678;52.052;4.242;2022-07-12T04:40:36;4.63;;;2.58;;
36691;SDS011;22678;52.052;4.242;2022-07-12T04:43:01;5.55;;;1.70;;
36691;SDS011;22678;52.052;4.242;2022-07-12T04:45:26;5.70;;;2.95;;
36691;SDS011;22678;52.052;4.242;2022-07-12T04:47:51;7.15;;;3.47;;
36691;SDS011;22678;52.052;4.242;2022-07-12T04:50:17;5.80;;;3.13;;
36691;SDS011;22678;52.052;4.242;2022-07-12T04:52:42;6.95;;;3.13;;
36691;SDS011;22678;52.052;4.242;2022-07-12T04:55:08;4.53;;;2.67;;
36691;SDS011;22678;52.052;4.242;2022-07-12T04:57:33;8.80;;;4.10;;
36691;SDS011;22678;52.052;4.242;2022-07-12T04:59:59;7.43;;;3.88;;
36691;SDS011;22678;52.052;4.242;2022-07-12T05:02:24;8.27;;;3.53;;
36691;SDS011;22678;52.052;4.242;2022-07-12T05:04:49;4.75;;;2.63;;
36691;SDS011;22678;52.052;4.242;2022-07-12T05:07:15;5.50;;;2.97;;
36691;SDS011;22678;52.052;4.242;2022-07-12T05:09:40;6.40;;;4.15;;
36691;SDS011;22678;52.052;4.242;2022-07-12T05:12:05;7.03;;;3.13;;
36691;SDS011;22678;52.052;4.242;2022-07-12T05:14:31;4.95;;;3.28;;
36691;SDS011;22678;52.052;4.242;2022-07-12T05:16:56;8.13;;;3.20;;
36691;SDS011;22678;52.052;4.242;2022-07-12T05:19:22;7.95;;;3.72;;
36691;SDS011;22678;52.052;4.242;2022-07-12T05:21:48;6.30;;;3.55;;
36691;SDS011;22678;52.052;4.242;2022-07-12T05:24:13;13.82;;;4.47;;
36691;SDS011;22678;52.052;4.242;2022-07-12T05:26:39;7.97;;;4.15;;
36691;SDS011;22678;52.052;4.242;2022-07-12T05:29:04;6.43;;;4.13;;
36691;SDS011;22678;52.052;4.242;2022-07-12T05:31:29;8.73;;;3.95;;
36691;SDS011;22678;52.052;4.242;2022-07-12T05:33:55;6.57;;;3.65;;
36691;SDS011;22678;52.052;4.242;2022-07-12T05:36:20;5.15;;;2.92;;
36691;SDS011;22678;52.052;4.242;2022-07-12T05:38:46;4.95;;;2.47;;
36691;SDS011;22678;52.052;4.242;2022-07-12T05:41:11;6.63;;;3.50;;
36691;SDS011;22678;52.052;4.242;2022-07-12T05:43:37;7.25;;;3.58;;
36691;SDS011;22678;52.052;4.242;2022-07-12T05:46:03;6.10;;;2.97;;
36691;SDS011;22678;52.052;4.242;2022-07-12T05:48:28;5.65;;;3.10;;
36691;SDS011;22678;52.052;4.242;2022-07-12T05:50:54;5.00;;;2.97;;
36691;SDS011;22678;52.052;4.242;2022-07-12T05:53:19;5.60;;;3.53;;
36691;SDS011;22678;52.052;4.242;2022-07-12T05:55:51;6.53;;;3.63;;
36691;SDS011;22678;52.052;4.242;2022-07-12T05:58:18;6.72;;;4.40;;
36691;SDS011;22678;52.052;4.242;2022-07-12T06:00:44;6.50;;;4.07;;
36691;SDS011;22678;52.052;4.242;2022-07-12T06:03:11;7.53;;;3.60;;
36691;SDS011;22678;52.052;4.242;2022-07-12T06:05:37;7.30;;;4.25;;
36691;SDS011;22678;52.052;4.242;2022-07-12T06:08:02;5.97;;;3.08;;
36691;SDS011;22678;52.052;4.242;2022-07-12T06:10:28;5.90;;;4.20;;
36691;SDS011;22678;52.052;4.242;2022-07-12T06:12:53;5.43;;;3.58;;
36691;SDS011;22678;52.052;4.242;2022-07-12T06:15:18;9.48;;;4.18;;
36691;SDS011;22678;52.052;4.242;2022-07-12T06:17:44;5.60;;;3.58;;
36691;SDS011;22678;52.052;4.242;2022-07-12T06:20:09;9.90;;;4.22;;
36691;SDS011;22678;52.052;4.242;2022-07-12T06:22:35;6.55;;;4.22;;
36691;SDS011;22678;52.052;4.242;2022-07-12T06:25:00;5.78;;;3.90;;
36691;SDS011;22678;52.052;4.242;2022-07-12T06:27:26;5.50;;;3.17;;
36691;SDS011;22678;52.052;4.242;2022-07-12T06:29:52;6.10;;;3.17;;
36691;SDS011;22678;52.052;4.242;2022-07-12T06:32:17;5.28;;;3.70;;
36691;SDS011;22678;52.052;4.242;2022-07-12T06:34:43;6.97;;;4.00;;
36691;SDS011;22678;52.052;4.242;2022-07-12T06:37:08;6.85;;;3.88;;
36691;SDS011;22678;52.052;4.242;2022-07-12T06:39:36;7.13;;;4.57;;
36691;SDS011;22678;52.052;4.242;2022-07-12T06:42:02;8.25;;;4.32;;
36691;SDS011;22678;52.052;4.242;2022-07-12T06:44:30;6.50;;;4.15;;
36691;SDS011;22678;52.052;4.242;2022-07-12T06:46:56;5.95;;;4.70;;
36691;SDS011;22678;52.052;4.242;2022-07-12T06:49:22;6.05;;;3.67;;
36691;SDS011;22678;52.052;4.242;2022-07-12T06:51:48;5.80;;;3.72;;
36691;SDS011;22678;52.052;4.242;2022-07-12T06:54:13;11.65;;;5.85;;
36691;SDS011;22678;52.052;4.242;2022-07-12T06:56:38;6.28;;;4.40;;
36691;SDS011;22678;52.052;4.242;2022-07-12T06:59:03;7.45;;;3.38;;
36691;SDS011;22678;52.052;4.242;2022-07-12T07:01:29;7.85;;;4.43;;
36691;SDS011;22678;52.052;4.242;2022-07-12T07:03:54;5.88;;;2.70;;
36691;SDS011;22678;52.052;4.242;2022-07-12T07:06:19;4.93;;;2.95;;
36691;SDS011;22678;52.052;4.242;2022-07-12T07:08:45;5.38;;;3.45;;
36691;SDS011;22678;52.052;4.242;2022-07-12T07:11:10;7.68;;;3.58;;
36691;SDS011;22678;52.052;4.242;2022-07-12T07:13:35;8.48;;;4.38;;
36691;SDS011;22678;52.052;4.242;2022-07-12T07:16:01;7.55;;;3.42;;
36691;SDS011;22678;52.052;4.242;2022-07-12T07:18:26;6.57;;;3.38;;
36691;SDS011;22678;52.052;4.242;2022-07-12T07:20:52;7.70;;;4.07;;
36691;SDS011;22678;52.052;4.242;2022-07-12T07:23:17;7.28;;;3.22;;
36691;SDS011;22678;52.052;4.242;2022-07-12T07:25:44;5.13;;;2.65;;
36691;SDS011;22678;52.052;4.242;2022-07-12T07:28:10;5.03;;;2.00;;
36691;SDS011;22678;52.052;4.242;2022-07-12T07:30:35;7.35;;;2.13;;
36691;SDS011;22678;52.052;4.242;2022-07-12T07:33:19;5.85;;;3.15;;
36691;SDS011;22678;52.052;4.242;2022-07-12T07:35:46;6.78;;;3.80;;
36691;SDS011;22678;52.052;4.242;2022-07-12T07:38:12;6.63;;;2.67;;
36691;SDS011;22678;52.052;4.242;2022-07-12T07:40:37;4.32;;;2.25;;
36691;SDS011;22678;52.052;4.242;2022-07-12T07:43:02;8.25;;;2.08;;
36691;SDS011;22678;52.052;4.242;2022-07-12T07:45:28;7.57;;;2.65;;
36691;SDS011;22678;52.052;4.242;2022-07-12T07:47:53;4.15;;;1.95;;
36691;SDS011;22678;52.052;4.242;2022-07-12T07:50:18;5.72;;;2.42;;
36691;SDS011;22678;52.052;4.242;2022-07-12T07:52:44;4.07;;;1.67;;
36691;SDS011;22678;52.052;4.242;2022-07-12T07:55:10;5.85;;;2.53;;
36691;SDS011;22678;52.052;4.242;2022-07-12T07:57:35;8.82;;;3.63;;
36691;SDS011;22678;52.052;4.242;2022-07-12T08:00:01;5.78;;;3.08;;
36691;SDS011;22678;52.052;4.242;2022-07-12T08:02:28;4.70;;;1.90;;
36691;SDS011;22678;52.052;4.242;2022-07-12T08:04:53;3.88;;;1.65;;
36691;SDS011;22678;52.052;4.242;2022-07-12T08:07:19;4.00;;;1.90;;
36691;SDS011;22678;52.052;4.242;2022-07-12T08:09:44;4.55;;;2.15;;
36691;SDS011;22678;52.052;4.242;2022-07-12T08:12:09;5.00;;;1.40;;
36691;SDS011;22678;52.052;4.242;2022-07-12T08:14:35;6.30;;;2.33;;
36691;SDS011;22678;52.052;4.242;2022-07-12T08:17:00;3.38;;;1.42;;
36691;SDS011;22678;52.052;4.242;2022-07-12T08:19:25;2.55;;;1.35;;
36691;SDS011;22678;52.052;4.242;2022-07-12T08:21:51;4.63;;;1.38;;
36691;SDS011;22678;52.052;4.242;2022-07-12T08:24:16;3.90;;;1.67;;
36691;SDS011;22678;52.052;4.242;2022-07-12T08:26:42;3.60;;;1.98;;
36691;SDS011;22678;52.052;4.242;2022-07-12T08:29:07;7.40;;;2.22;;
36691;SDS011;22678;52.052;4.242;2022-07-12T08:31:32;6.60;;;1.85;;
36691;SDS011;22678;52.052;4.242;2022-07-12T08:33:58;5.90;;;1.90;;
36691;SDS011;22678;52.052;4.242;2022-07-12T08:36:23;3.58;;;1.88;;
36691;SDS011;22678;52.052;4.242;2022-07-12T08:38:48;3.58;;;2.00;;
36691;SDS011;22678;52.052;4.242;2022-07-12T08:41:14;4.22;;;1.58;;
36691;SDS011;22678;52.052;4.242;2022-07-12T08:43:40;5.22;;;2.03;;
36691;SDS011;22678;52.052;4.242;2022-07-12T08:46:06;4.65;;;2.65;;
36691;SDS011;22678;52.052;4.242;2022-07-12T08:48:35;5.38;;;3.80;;
36691;SDS011;22678;52.052;4.242;2022-07-12T08:51:03;4.28;;;2.58;;
36691;SDS011;22678;52.052;4.242;2022-07-12T08:53:30;8.75;;;3.45;;
36691;SDS011;22678;52.052;4.242;2022-07-12T08:55:56;6.97;;;2.70;;
36691;SDS011;22678;52.052;4.242;2022-07-12T08:58:22;6.32;;;2.85;;
36691;SDS011;22678;52.052;4.242;2022-07-12T09:00:47;6.57;;;2.65;;
36691;SDS011;22678;52.052;4.242;2022-07-12T09:03:12;5.55;;;2.78;;
36691;SDS011;22678;52.052;4.242;2022-07-12T09:05:42;7.40;;;3.55;;
36691;SDS011;22678;52.052;4.242;2022-07-12T09:08:13;6.50;;;4.55;;
36691;SDS011;22678;52.052;4.242;2022-07-12T09:10:55;9.75;;;4.40;;
36691;SDS011;22678;52.052;4.242;2022-07-12T09:13:45;11.70;;;4.75;;
36691;SDS011;22678;52.052;4.242;2022-07-12T09:16:13;7.97;;;5.35;;
36691;SDS011;22678;52.052;4.242;2022-07-12T09:18:39;6.60;;;4.20;;
36691;SDS011;22678;52.052;4.242;2022-07-12T09:21:05;6.18;;;4.05;;
36691;SDS011;22678;52.052;4.242;2022-07-12T09:23:30;7.38;;;5.53;;
36691;SDS011;22678;52.052;4.242;2022-07-12T09:25:56;11.15;;;5.78;;
36691;SDS011;22678;52.052;4.242;2022-07-12T09:28:21;10.63;;;4.82;;
36691;SDS011;22678;52.052;4.242;2022-07-12T09:30:48;11.05;;;6.32;;
36691;SDS011;22678;52.052;4.242;2022-07-12T09:33:17;9.45;;;5.70;;
36691;SDS011;22678;52.052;4.242;2022-07-12T09:36:02;12.82;;;6.18;;
36691;SDS011;22678;52.052;4.242;2022-07-12T09:38:34;11.35;;;7.35;;
36691;SDS011;22678;52.052;4.242;2022-07-12T09:41:07;8.50;;;6.05;;
36691;SDS011;22678;52.052;4.242;2022-07-12T09:43:33;10.98;;;6.00;;
36691;SDS011;22678;52.052;4.242;2022-07-12T09:45:59;8.30;;;5.45;;
36691;SDS011;22678;52.052;4.242;2022-07-12T09:48:28;8.45;;;4.95;;
36691;SDS011;22678;52.052;4.242;2022-07-12T09:50:55;7.85;;;5.38;;
36691;SDS011;22678;52.052;4.242;2022-07-12T09:53:28;7.95;;;4.55;;
36691;SDS011;22678;52.052;4.242;2022-07-12T09:55:56;11.70;;;6.07;;
36691;SDS011;22678;52.052;4.242;2022-07-12T09:58:23;7.68;;;5.35;;
36691;SDS011;22678;52.052;4.242;2022-07-12T10:00:55;6.35;;;3.75;;
36691;SDS011;22678;52.052;4.242;2022-07-12T10:03:28;9.10;;;5.00;;
36691;SDS011;22678;52.052;4.242;2022-07-12T10:05:56;7.97;;;4.18;;
36691;SDS011;22678;52.052;4.242;2022-07-12T10:08:25;8.05;;;4.20;;
36691;SDS011;22678;52.052;4.242;2022-07-12T10:10:50;10.05;;;4.57;;
36691;SDS011;22678;52.052;4.242;2022-07-12T10:13:16;8.70;;;4.93;;
36691;SDS011;22678;52.052;4.242;2022-07-12T10:15:44;9.32;;;4.60;;
36691;SDS011;22678;52.052;4.242;2022-07-12T10:18:19;7.18;;;4.25;;
36691;SDS011;22678;52.052;4.242;2022-07-12T10:20:46;10.95;;;2.75;;
36691;SDS011;22678;52.052;4.242;2022-07-12T10:25:41;5.57;;;3.22;;
36691;SDS011;22678;52.052;4.242;2022-07-12T10:28:06;6.03;;;3.42;;
36691;SDS011;22678;52.052;4.242;2022-07-12T10:30:40;8.25;;;3.50;;
36691;SDS011;22678;52.052;4.242;2022-07-12T10:33:20;5.65;;;3.17;;
36691;SDS011;22678;52.052;4.242;2022-07-12T10:35:59;5.25;;;2.15;;
36691;SDS011;22678;52.052;4.242;2022-07-12T10:38:26;6.53;;;2.67;;
36691;SDS011;22678;52.052;4.242;2022-07-12T10:40:52;10.07;;;2.70;;
36691;SDS011;22678;52.052;4.242;2022-07-12T10:43:19;5.32;;;3.00;;
36691;SDS011;22678;52.052;4.242;2022-07-12T10:45:47;5.05;;;2.25;;
36691;SDS011;22678;52.052;4.242;2022-07-12T11:03:54;4.47;;;2.55;;
36691;SDS011;22678;52.052;4.242;2022-07-12T11:06:21;4.85;;;2.70;;
36691;SDS011;22678;52.052;4.242;2022-07-12T11:14:20;4.50;;;1.50;;
36691;SDS011;22678;52.052;4.242;2022-07-12T11:16:47;3.03;;;1.60;;
36691;SDS011;22678;52.052;4.242;2022-07-12T11:19:14;3.33;;;1.92;;
36691;SDS011;22678;52.052;4.242;2022-07-12T11:21:46;5.95;;;1.80;;
36691;SDS011;22678;52.052;4.242;2022-07-12T11:24:15;5.90;;;1.77;;
36691;SDS011;22678;52.052;4.242;2022-07-12T11:26:42;7.85;;;2.92;;
36691;SDS011;22678;52.052;4.242;2022-07-12T11:29:07;7.60;;;5.45;;
36691;SDS011;22678;52.052;4.242;2022-07-12T11:31:33;6.00;;;4.18;;
36691;SDS011;22678;52.052;4.242;2022-07-12T11:33:58;9.45;;;5.10;;
36691;SDS011;22678;52.052;4.242;2022-07-12T11:36:24;6.28;;;4.03;;
36691;SDS011;22678;52.052;4.242;2022-07-12T11:38:50;5.70;;;2.90;;
36691;SDS011;22678;52.052;4.242;2022-07-12T11:41:16;6.78;;;3.53;;
36691;SDS011;22678;52.052;4.242;2022-07-12T11:43:41;6.35;;;4.00;;
36691;SDS011;22678;52.052;4.242;2022-07-12T11:46:07;5.43;;;3.35;;
36691;SDS011;22678;52.052;4.242;2022-07-12T11:48:34;6.25;;;2.60;;
36691;SDS011;22678;52.052;4.242;2022-07-12T11:51:02;8.38;;;3.63;;
36691;SDS011;22678;52.052;4.242;2022-07-12T11:53:30;8.40;;;2.45;;
36691;SDS011;22678;52.052;4.242;2022-07-12T11:55:58;4.20;;;1.92;;
36691;SDS011;22678;52.052;4.242;2022-07-12T11:58:25;5.72;;;2.35;;
36691;SDS011;22678;52.052;4.242;2022-07-12T12:00:52;5.57;;;1.95;;
36691;SDS011;22678;52.052;4.242;2022-07-12T12:03:19;6.55;;;2.92;;
36691;SDS011;22678;52.052;4.242;2022-07-12T12:05:47;7.97;;;3.08;;
36691;SDS011;22678;52.052;4.242;2022-07-12T12:08:13;4.53;;;1.75;;
36691;SDS011;22678;52.052;4.242;2022-07-12T12:10:40;6.38;;;1.77;;
36691;SDS011;22678;52.052;4.242;2022-07-12T12:13:16;4.50;;;2.42;;
36691;SDS011;22678;52.052;4.242;2022-07-12T12:16:15;3.08;;;1.85;;
36691;SDS011;22678;52.052;4.242;2022-07-12T12:18:39;4.57;;;1.80;;
36691;SDS011;22678;52.052;4.242;2022-07-12T12:21:06;2.55;;;0.73;;
36691;SDS011;22678;52.052;4.242;2022-07-12T12:23:33;5.43;;;1.10;;
36691;SDS011;22678;52.052;4.242;2022-07-12T12:26:14;2.90;;;1.02;;
36691;SDS011;22678;52.052;4.242;2022-07-12T12:31:17;5.10;;;2.17;;
36691;SDS011;22678;52.052;4.242;2022-07-12T12:33:45;3.17;;;1.38;;
36691;SDS011;22678;52.052;4.242;2022-07-12T12:36:19;5.68;;;2.33;;
36691;SDS011;22678;52.052;4.242;2022-07-12T12:38:48;5.78;;;3.75;;
36691;SDS011;22678;52.052;4.242;2022-07-12T12:41:15;7.70;;;2.97;;
36691;SDS011;22678;52.052;4.242;2022-07-12T12:43:42;5.70;;;2.38;;
36691;SDS011;22678;52.052;4.242;2022-07-12T12:46:08;6.80;;;2.50;;
36691;SDS011;22678;52.052;4.242;2022-07-12T12:48:33;7.72;;;3.00;;
36691;SDS011;22678;52.052;4.242;2022-07-12T12:53:32;6.70;;;2.78;;
36691;SDS011;22678;52.052;4.242;2022-07-12T12:55:58;6.55;;;2.65;;
36691;SDS011;22678;52.052;4.242;2022-07-12T12:58:24;5.05;;;2.83;;
36691;SDS011;22678;52.052;4.242;2022-07-12T13:00:51;5.10;;;1.90;;
36691;SDS011;22678;52.052;4.242;2022-07-12T13:03:19;3.95;;;2.00;;
36691;SDS011;22678;52.052;4.242;2022-07-12T13:05:45;6.90;;;2.03;;
36691;SDS011;22678;52.052;4.242;2022-07-12T13:08:12;5.85;;;2.58;;
36691;SDS011;22678;52.052;4.242;2022-07-12T13:10:39;3.72;;;2.08;;
36691;SDS011;22678;52.052;4.242;2022-07-12T13:13:08;10.52;;;2.55;;
36691;SDS011;22678;52.052;4.242;2022-07-12T13:15:35;3.97;;;1.73;;
36691;SDS011;22678;52.052;4.242;2022-07-12T13:18:01;3.30;;;1.95;;
36691;SDS011;22678;52.052;4.242;2022-07-12T13:20:27;2.90;;;1.33;;
36691;SDS011;22678;52.052;4.242;2022-07-12T13:22:53;3.20;;;1.80;;
36691;SDS011;22678;52.052;4.242;2022-07-12T13:25:19;5.05;;;2.45;;
36691;SDS011;22678;52.052;4.242;2022-07-12T13:27:45;4.90;;;2.35;;
36691;SDS011;22678;52.052;4.242;2022-07-12T13:30:12;5.80;;;2.65;;
36691;SDS011;22678;52.052;4.242;2022-07-12T13:32:38;5.75;;;2.88;;
36691;SDS011;22678;52.052;4.242;2022-07-12T13:35:05;7.80;;;2.42;;
36691;SDS011;22678;52.052;4.242;2022-07-12T13:37:32;8.63;;;4.40;;
36691;SDS011;22678;52.052;4.242;2022-07-12T13:39:58;6.97;;;4.05;;
36691;SDS011;22678;52.052;4.242;2022-07-12T13:42:39;9.05;;;4.40;;
36691;SDS011;22678;52.052;4.242;2022-07-12T13:45:06;8.25;;;4.63;;
36691;SDS011;22678;52.052;4.242;2022-07-12T13:47:34;8.18;;;5.05;;
36691;SDS011;22678;52.052;4.242;2022-07-12T13:49:59;6.70;;;4.78;;
36691;SDS011;22678;52.052;4.242;2022-07-12T13:52:25;5.15;;;4.07;;
36691;SDS011;22678;52.052;4.242;2022-07-12T13:54:50;5.53;;;3.70;;
36691;SDS011;22678;52.052;4.242;2022-07-12T13:57:15;7.43;;;4.00;;
36691;SDS011;22678;52.052;4.242;2022-07-12T13:59:41;11.60;;;5.70;;
36691;SDS011;22678;52.052;4.242;2022-07-12T14:02:06;14.20;;;5.40;;
36691;SDS011;22678;52.052;4.242;2022-07-12T14:04:32;5.40;;;4.70;;
36691;SDS011;22678;52.052;4.242;2022-07-12T14:06:57;6.13;;;5.03;;
36691;SDS011;22678;52.052;4.242;2022-07-12T14:09:23;7.03;;;5.03;;
36691;SDS011;22678;52.052;4.242;2022-07-12T14:11:48;6.78;;;3.60;;
36691;SDS011;22678;52.052;4.242;2022-07-12T14:14:14;6.10;;;4.85;;
36691;SDS011;22678;52.052;4.242;2022-07-12T14:16:39;4.78;;;4.07;;
36691;SDS011;22678;52.052;4.242;2022-07-12T14:19:05;5.93;;;3.85;;
36691;SDS011;22678;52.052;4.242;2022-07-12T14:21:30;7.55;;;4.05;;
36691;SDS011;22678;52.052;4.242;2022-07-12T14:23:56;5.05;;;3.95;;
36691;SDS011;22678;52.052;4.242;2022-07-12T14:26:25;8.05;;;4.22;;
36691;SDS011;22678;52.052;4.242;2022-07-12T14:28:53;11.80;;;4.93;;
36691;SDS011;22678;52.052;4.242;2022-07-12T14:31:19;8.80;;;4.50;;
36691;SDS011;22678;52.052;4.242;2022-07-12T14:33:44;9.80;;;4.90;;
36691;SDS011;22678;52.052;4.242;2022-07-12T14:36:09;6.68;;;4.68;;
36691;SDS011;22678;52.052;4.242;2022-07-12T14:38:35;7.90;;;3.70;;
36691;SDS011;22678;52.052;4.242;2022-07-12T14:41:00;4.57;;;2.97;;
36691;SDS011;22678;52.052;4.242;2022-07-12T14:43:25;5.07;;;2.63;;
36691;SDS011;22678;52.052;4.242;2022-07-12T14:45:51;5.57;;;3.63;;
36691;SDS011;22678;52.052;4.242;2022-07-12T14:48:16;5.30;;;3.38;;
36691;SDS011;22678;52.052;4.242;2022-07-12T14:50:41;5.45;;;3.78;;
36691;SDS011;22678;52.052;4.242;2022-07-12T14:53:07;5.00;;;2.97;;
36691;SDS011;22678;52.052;4.242;2022-07-12T14:55:32;5.53;;;2.80;;
36691;SDS011;22678;52.052;4.242;2022-07-12T14:57:58;7.15;;;2.65;;
36691;SDS011;22678;52.052;4.242;2022-07-12T15:00:24;6.18;;;2.92;;
36691;SDS011;22678;52.052;4.242;2022-07-12T15:02:49;6.07;;;2.58;;
36691;SDS011;22678;52.052;4.242;2022-07-12T15:05:14;3.75;;;2.60;;
36691;SDS011;22678;52.052;4.242;2022-07-12T15:07:40;4.47;;;2.20;;
36691;SDS011;22678;52.052;4.242;2022-07-12T15:10:05;5.55;;;3.63;;